Greenwood Township, Michigan
Current Conditions -  °F | °C
As of 10:57 AM on Sunday 21 Dec 2014 (Local Time) from KPHN Reporting Station
Overcast Overcast  
Wind Chill: 30°   Ceiling: 3700
Heat Index: 30°   Visibility: 10mi
Dew Point: 25°   Wind: 3mph
Humidity: 80%   Direction: 150°SSE
Pressure: 30.32"   Gusts: NA
Location:  43.076°N, 82.6968°W
Report Text: KPHN 211557Z AUTO 15003KT 10SM OVC037 M01/M04 A3032 RMK AO2
Loading
Personal Weather Stations






























Interactive Weather Map New forecast layout! Learn more

10-Day Weather Forecast

Advertisements
Track Severe Weather on mobile